sensor_id;sensor_type;location;lat;lon;timestamp;P1;durP1;ratioP1;P2;durP2;ratioP2
63807;SDS011;49961;43.970;22.868;2024-01-15T00:00:13;8.33;;;3.10;;
63807;SDS011;49961;43.970;22.868;2024-01-15T00:01:14;5.57;;;2.77;;
63807;SDS011;49961;43.970;22.868;2024-01-15T00:02:14;10.13;;;3.47;;
63807;SDS011;49961;43.970;22.868;2024-01-15T00:03:15;6.63;;;2.73;;
63807;SDS011;49961;43.970;22.868;2024-01-15T00:04:15;5.80;;;3.03;;
63807;SDS011;49961;43.970;22.868;2024-01-15T00:05:16;5.13;;;2.60;;
63807;SDS011;49961;43.970;22.868;2024-01-15T00:06:16;5.73;;;2.93;;
63807;SDS011;49961;43.970;22.868;2024-01-15T00:07:17;7.00;;;3.13;;
63807;SDS011;49961;43.970;22.868;2024-01-15T00:08:17;11.30;;;3.93;;
63807;SDS011;49961;43.970;22.868;2024-01-15T00:09:18;8.80;;;3.33;;
63807;SDS011;49961;43.970;22.868;2024-01-15T00:10:18;5.97;;;2.87;;
63807;SDS011;49961;43.970;22.868;2024-01-15T00:11:19;7.10;;;3.50;;
63807;SDS011;49961;43.970;22.868;2024-01-15T00:12:19;6.57;;;3.03;;
63807;SDS011;49961;43.970;22.868;2024-01-15T00:13:20;5.97;;;2.67;;
63807;SDS011;49961;43.970;22.868;2024-01-15T00:14:20;5.93;;;3.30;;
63807;SDS011;49961;43.970;22.868;2024-01-15T00:15:21;5.77;;;2.93;;
63807;SDS011;49961;43.970;22.868;2024-01-15T00:16:22;7.65;;;3.05;;
63807;SDS011;49961;43.970;22.868;2024-01-15T00:17:22;5.90;;;3.23;;
63807;SDS011;49961;43.970;22.868;2024-01-15T00:18:23;6.50;;;3.80;;
63807;SDS011;49961;43.970;22.868;2024-01-15T00:19:23;6.23;;;3.30;;
63807;SDS011;49961;43.970;22.868;2024-01-15T00:20:24;6.87;;;3.07;;
63807;SDS011;49961;43.970;22.868;2024-01-15T00:21:25;10.20;;;3.20;;
63807;SDS011;49961;43.970;22.868;2024-01-15T00:22:25;4.27;;;2.70;;
63807;SDS011;49961;43.970;22.868;2024-01-15T00:23:27;6.28;;;2.92;;
63807;SDS011;49961;43.970;22.868;2024-01-15T00:24:27;9.00;;;3.17;;
63807;SDS011;49961;43.970;22.868;2024-01-15T00:25:28;6.37;;;3.57;;
63807;SDS011;49961;43.970;22.868;2024-01-15T00:26:28;4.57;;;3.17;;
63807;SDS011;49961;43.970;22.868;2024-01-15T00:27:29;8.23;;;3.37;;
63807;SDS011;49961;43.970;22.868;2024-01-15T00:28:29;8.50;;;3.27;;
63807;SDS011;49961;43.970;22.868;2024-01-15T00:29:30;5.80;;;3.50;;
63807;SDS011;49961;43.970;22.868;2024-01-15T00:30:30;5.43;;;3.00;;
63807;SDS011;49961;43.970;22.868;2024-01-15T00:31:31;4.90;;;2.77;;
63807;SDS011;49961;43.970;22.868;2024-01-15T00:32:31;7.40;;;3.43;;
63807;SDS011;49961;43.970;22.868;2024-01-15T00:33:32;5.70;;;3.60;;
63807;SDS011;49961;43.970;22.868;2024-01-15T00:34:32;6.17;;;3.53;;
63807;SDS011;49961;43.970;22.868;2024-01-15T00:35:33;6.23;;;3.23;;
63807;SDS011;49961;43.970;22.868;2024-01-15T00:36:33;5.23;;;2.73;;
63807;SDS011;49961;43.970;22.868;2024-01-15T00:37:34;7.20;;;3.30;;
63807;SDS011;49961;43.970;22.868;2024-01-15T00:38:34;6.07;;;3.93;;
63807;SDS011;49961;43.970;22.868;2024-01-15T00:39:35;6.50;;;3.93;;
63807;SDS011;49961;43.970;22.868;2024-01-15T00:40:35;9.33;;;4.17;;
63807;SDS011;49961;43.970;22.868;2024-01-15T00:41:36;6.27;;;3.67;;
63807;SDS011;49961;43.970;22.868;2024-01-15T00:42:37;6.37;;;3.23;;
63807;SDS011;49961;43.970;22.868;2024-01-15T00:43:37;6.57;;;3.20;;
63807;SDS011;49961;43.970;22.868;2024-01-15T00:44:38;8.40;;;3.53;;
63807;SDS011;49961;43.970;22.868;2024-01-15T00:45:38;6.03;;;3.10;;
63807;SDS011;49961;43.970;22.868;2024-01-15T00:46:43;6.17;;;3.10;;
63807;SDS011;49961;43.970;22.868;2024-01-15T00:47:45;7.30;;;3.88;;
63807;SDS011;49961;43.970;22.868;2024-01-15T00:48:45;5.57;;;3.23;;
63807;SDS011;49961;43.970;22.868;2024-01-15T00:49:47;6.13;;;3.13;;
63807;SDS011;49961;43.970;22.868;2024-01-15T00:50:47;11.23;;;3.50;;
63807;SDS011;49961;43.970;22.868;2024-01-15T00:51:48;7.87;;;3.60;;
63807;SDS011;49961;43.970;22.868;2024-01-15T00:52:48;6.90;;;3.30;;
63807;SDS011;49961;43.970;22.868;2024-01-15T00:53:49;9.63;;;3.40;;
63807;SDS011;49961;43.970;22.868;2024-01-15T00:54:49;5.13;;;2.87;;
63807;SDS011;49961;43.970;22.868;2024-01-15T00:55:50;6.23;;;3.60;;
63807;SDS011;49961;43.970;22.868;2024-01-15T00:56:50;5.80;;;2.80;;
63807;SDS011;49961;43.970;22.868;2024-01-15T00:57:51;4.30;;;2.67;;
63807;SDS011;49961;43.970;22.868;2024-01-15T00:58:51;5.73;;;3.00;;
63807;SDS011;49961;43.970;22.868;2024-01-15T00:59:52;5.80;;;2.70;;
63807;SDS011;49961;43.970;22.868;2024-01-15T01:00:52;5.67;;;3.03;;
63807;SDS011;49961;43.970;22.868;2024-01-15T01:01:53;6.67;;;3.07;;
63807;SDS011;49961;43.970;22.868;2024-01-15T01:02:53;6.73;;;3.73;;
63807;SDS011;49961;43.970;22.868;2024-01-15T01:03:54;6.70;;;3.27;;
63807;SDS011;49961;43.970;22.868;2024-01-15T01:04:54;10.53;;;3.63;;
63807;SDS011;49961;43.970;22.868;2024-01-15T01:05:55;6.33;;;3.87;;
63807;SDS011;49961;43.970;22.868;2024-01-15T01:06:55;5.47;;;3.00;;
63807;SDS011;49961;43.970;22.868;2024-01-15T01:07:56;6.57;;;3.63;;
63807;SDS011;49961;43.970;22.868;2024-01-15T01:08:56;4.73;;;3.20;;
63807;SDS011;49961;43.970;22.868;2024-01-15T01:09:57;6.53;;;3.43;;
63807;SDS011;49961;43.970;22.868;2024-01-15T01:10:57;7.47;;;4.43;;
63807;SDS011;49961;43.970;22.868;2024-01-15T01:11:58;8.17;;;4.47;;
63807;SDS011;49961;43.970;22.868;2024-01-15T01:12:58;8.27;;;4.27;;
63807;SDS011;49961;43.970;22.868;2024-01-15T01:13:59;11.23;;;4.50;;
63807;SDS011;49961;43.970;22.868;2024-01-15T01:15:00;6.20;;;3.80;;
63807;SDS011;49961;43.970;22.868;2024-01-15T01:16:01;7.27;;;3.73;;
63807;SDS011;49961;43.970;22.868;2024-01-15T01:17:02;7.07;;;3.90;;
63807;SDS011;49961;43.970;22.868;2024-01-15T01:18:02;7.20;;;4.03;;
63807;SDS011;49961;43.970;22.868;2024-01-15T01:19:03;9.33;;;4.33;;
63807;SDS011;49961;43.970;22.868;2024-01-15T01:20:03;10.60;;;5.00;;
63807;SDS011;49961;43.970;22.868;2024-01-15T01:21:06;8.77;;;5.40;;
63807;SDS011;49961;43.970;22.868;2024-01-15T01:22:06;8.70;;;4.70;;
63807;SDS011;49961;43.970;22.868;2024-01-15T01:23:07;11.67;;;5.67;;
63807;SDS011;49961;43.970;22.868;2024-01-15T01:24:07;9.87;;;5.10;;
63807;SDS011;49961;43.970;22.868;2024-01-15T01:25:08;9.23;;;4.53;;
63807;SDS011;49961;43.970;22.868;2024-01-15T01:26:09;14.03;;;6.83;;
63807;SDS011;49961;43.970;22.868;2024-01-15T01:27:09;13.93;;;6.47;;
63807;SDS011;49961;43.970;22.868;2024-01-15T01:28:10;14.13;;;6.43;;
63807;SDS011;49961;43.970;22.868;2024-01-15T01:29:10;11.97;;;7.10;;
63807;SDS011;49961;43.970;22.868;2024-01-15T01:30:11;11.77;;;7.20;;
63807;SDS011;49961;43.970;22.868;2024-01-15T01:31:12;14.53;;;6.67;;
63807;SDS011;49961;43.970;22.868;2024-01-15T01:32:12;13.33;;;6.47;;
63807;SDS011;49961;43.970;22.868;2024-01-15T01:33:13;14.30;;;6.90;;
63807;SDS011;49961;43.970;22.868;2024-01-15T01:34:14;17.17;;;7.53;;
63807;SDS011;49961;43.970;22.868;2024-01-15T01:35:15;19.33;;;9.18;;
63807;SDS011;49961;43.970;22.868;2024-01-15T01:36:16;15.33;;;7.83;;
63807;SDS011;49961;43.970;22.868;2024-01-15T01:37:16;12.43;;;7.83;;
63807;SDS011;49961;43.970;22.868;2024-01-15T01:38:17;15.30;;;7.33;;
63807;SDS011;49961;43.970;22.868;2024-01-15T01:39:17;14.80;;;7.87;;
63807;SDS011;49961;43.970;22.868;2024-01-15T01:40:18;16.13;;;8.30;;
63807;SDS011;49961;43.970;22.868;2024-01-15T01:41:18;14.83;;;7.97;;
63807;SDS011;49961;43.970;22.868;2024-01-15T01:42:19;16.77;;;7.90;;
63807;SDS011;49961;43.970;22.868;2024-01-15T01:43:19;20.30;;;7.03;;
63807;SDS011;49961;43.970;22.868;2024-01-15T01:44:20;22.67;;;7.80;;
63807;SDS011;49961;43.970;22.868;2024-01-15T01:45:20;14.50;;;6.73;;
63807;SDS011;49961;43.970;22.868;2024-01-15T01:46:20;13.03;;;7.60;;
63807;SDS011;49961;43.970;22.868;2024-01-15T01:47:21;15.67;;;7.87;;
63807;SDS011;49961;43.970;22.868;2024-01-15T01:48:22;18.37;;;7.23;;
63807;SDS011;49961;43.970;22.868;2024-01-15T01:49:23;10.65;;;6.43;;
63807;SDS011;49961;43.970;22.868;2024-01-15T01:50:24;14.20;;;6.70;;
63807;SDS011;49961;43.970;22.868;2024-01-15T01:51:25;13.20;;;6.50;;
63807;SDS011;49961;43.970;22.868;2024-01-15T01:52:25;19.43;;;6.90;;
63807;SDS011;49961;43.970;22.868;2024-01-15T01:53:26;16.13;;;8.50;;
63807;SDS011;49961;43.970;22.868;2024-01-15T01:54:28;15.10;;;6.47;;
63807;SDS011;49961;43.970;22.868;2024-01-15T01:55:31;14.68;;;6.40;;
63807;SDS011;49961;43.970;22.868;2024-01-15T01:56:33;11.05;;;6.13;;
63807;SDS011;49961;43.970;22.868;2024-01-15T01:57:34;13.00;;;6.80;;
63807;SDS011;49961;43.970;22.868;2024-01-15T01:58:35;10.85;;;5.82;;
63807;SDS011;49961;43.970;22.868;2024-01-15T01:59:36;11.98;;;6.13;;
63807;SDS011;49961;43.970;22.868;2024-01-15T02:00:37;17.33;;;6.40;;
63807;SDS011;49961;43.970;22.868;2024-01-15T02:01:38;15.98;;;7.60;;
63807;SDS011;49961;43.970;22.868;2024-01-15T02:02:39;15.07;;;8.63;;
63807;SDS011;49961;43.970;22.868;2024-01-15T02:03:39;12.63;;;6.67;;
63807;SDS011;49961;43.970;22.868;2024-01-15T02:04:41;11.23;;;5.93;;
63807;SDS011;49961;43.970;22.868;2024-01-15T02:05:42;11.47;;;6.00;;
63807;SDS011;49961;43.970;22.868;2024-01-15T02:06:43;14.15;;;7.10;;
63807;SDS011;49961;43.970;22.868;2024-01-15T02:07:43;13.33;;;6.33;;
63807;SDS011;49961;43.970;22.868;2024-01-15T02:08:44;14.18;;;5.90;;
63807;SDS011;49961;43.970;22.868;2024-01-15T02:09:45;16.00;;;7.70;;
63807;SDS011;49961;43.970;22.868;2024-01-15T02:10:46;16.80;;;9.07;;
63807;SDS011;49961;43.970;22.868;2024-01-15T02:11:46;15.17;;;7.17;;
63807;SDS011;49961;43.970;22.868;2024-01-15T02:12:47;16.17;;;7.47;;
63807;SDS011;49961;43.970;22.868;2024-01-15T02:13:48;17.23;;;7.63;;
63807;SDS011;49961;43.970;22.868;2024-01-15T02:14:49;12.43;;;7.00;;
63807;SDS011;49961;43.970;22.868;2024-01-15T02:15:50;13.97;;;6.93;;
63807;SDS011;49961;43.970;22.868;2024-01-15T02:16:50;16.90;;;7.20;;
63807;SDS011;49961;43.970;22.868;2024-01-15T02:18:57;15.65;;;7.28;;
63807;SDS011;49961;43.970;22.868;2024-01-15T02:19:58;13.07;;;7.53;;
63807;SDS011;49961;43.970;22.868;2024-01-15T02:20:58;15.83;;;6.97;;
63807;SDS011;49961;43.970;22.868;2024-01-15T02:21:59;13.67;;;6.73;;
63807;SDS011;49961;43.970;22.868;2024-01-15T02:23:09;15.83;;;6.83;;
63807;SDS011;49961;43.970;22.868;2024-01-15T02:24:11;15.57;;;6.70;;
63807;SDS011;49961;43.970;22.868;2024-01-15T02:25:12;15.10;;;7.53;;
63807;SDS011;49961;43.970;22.868;2024-01-15T02:26:12;17.93;;;7.60;;
63807;SDS011;49961;43.970;22.868;2024-01-15T02:27:14;13.43;;;7.25;;
63807;SDS011;49961;43.970;22.868;2024-01-15T02:28:15;13.17;;;6.73;;
63807;SDS011;49961;43.970;22.868;2024-01-15T02:29:17;12.30;;;6.65;;
63807;SDS011;49961;43.970;22.868;2024-01-15T02:30:18;11.73;;;6.67;;
63807;SDS011;49961;43.970;22.868;2024-01-15T02:31:19;14.93;;;7.73;;
63807;SDS011;49961;43.970;22.868;2024-01-15T02:32:19;12.67;;;7.63;;
63807;SDS011;49961;43.970;22.868;2024-01-15T02:33:20;17.13;;;8.30;;
63807;SDS011;49961;43.970;22.868;2024-01-15T02:34:20;10.33;;;6.83;;
63807;SDS011;49961;43.970;22.868;2024-01-15T02:35:21;16.43;;;7.90;;
63807;SDS011;49961;43.970;22.868;2024-01-15T02:36:21;16.33;;;7.37;;
63807;SDS011;49961;43.970;22.868;2024-01-15T02:37:22;13.57;;;7.30;;
63807;SDS011;49961;43.970;22.868;2024-01-15T02:38:22;16.13;;;7.53;;
63807;SDS011;49961;43.970;22.868;2024-01-15T02:39:23;15.07;;;7.60;;
63807;SDS011;49961;43.970;22.868;2024-01-15T02:40:23;15.93;;;7.93;;
63807;SDS011;49961;43.970;22.868;2024-01-15T02:41:24;12.60;;;6.50;;
63807;SDS011;49961;43.970;22.868;2024-01-15T02:42:26;10.60;;;6.43;;
63807;SDS011;49961;43.970;22.868;2024-01-15T02:43:26;12.90;;;7.93;;
63807;SDS011;49961;43.970;22.868;2024-01-15T02:44:27;15.33;;;7.23;;
63807;SDS011;49961;43.970;22.868;2024-01-15T02:45:27;14.10;;;7.20;;
63807;SDS011;49961;43.970;22.868;2024-01-15T02:46:28;17.33;;;8.63;;
63807;SDS011;49961;43.970;22.868;2024-01-15T02:47:28;14.97;;;7.30;;
63807;SDS011;49961;43.970;22.868;2024-01-15T02:48:29;12.97;;;7.50;;
63807;SDS011;49961;43.970;22.868;2024-01-15T02:49:29;18.37;;;7.83;;
63807;SDS011;49961;43.970;22.868;2024-01-15T02:50:31;15.20;;;7.75;;
63807;SDS011;49961;43.970;22.868;2024-01-15T02:51:31;13.20;;;7.77;;
63807;SDS011;49961;43.970;22.868;2024-01-15T02:52:32;19.87;;;8.50;;
63807;SDS011;49961;43.970;22.868;2024-01-15T02:53:32;16.47;;;7.33;;
63807;SDS011;49961;43.970;22.868;2024-01-15T02:54:33;15.37;;;8.43;;
63807;SDS011;49961;43.970;22.868;2024-01-15T02:55:33;17.50;;;8.43;;
63807;SDS011;49961;43.970;22.868;2024-01-15T02:56:34;13.00;;;7.30;;
63807;SDS011;49961;43.970;22.868;2024-01-15T02:57:34;16.13;;;7.93;;
63807;SDS011;49961;43.970;22.868;2024-01-15T02:58:35;13.93;;;8.73;;
63807;SDS011;49961;43.970;22.868;2024-01-15T02:59:35;11.90;;;7.60;;
63807;SDS011;49961;43.970;22.868;2024-01-15T03:00:36;16.67;;;8.23;;
63807;SDS011;49961;43.970;22.868;2024-01-15T03:01:36;15.87;;;8.17;;
63807;SDS011;49961;43.970;22.868;2024-01-15T03:02:37;15.17;;;8.37;;
63807;SDS011;49961;43.970;22.868;2024-01-15T03:03:43;13.60;;;7.43;;
63807;SDS011;49961;43.970;22.868;2024-01-15T03:04:44;23.53;;;11.40;;
63807;SDS011;49961;43.970;22.868;2024-01-15T03:05:45;14.65;;;7.45;;
63807;SDS011;49961;43.970;22.868;2024-01-15T03:06:45;16.93;;;9.97;;
63807;SDS011;49961;43.970;22.868;2024-01-15T03:07:46;18.30;;;10.07;;
63807;SDS011;49961;43.970;22.868;2024-01-15T03:08:46;22.57;;;11.40;;
63807;SDS011;49961;43.970;22.868;2024-01-15T03:09:47;17.23;;;10.20;;
63807;SDS011;49961;43.970;22.868;2024-01-15T03:10:47;19.20;;;10.90;;
63807;SDS011;49961;43.970;22.868;2024-01-15T03:11:48;16.13;;;7.47;;
63807;SDS011;49961;43.970;22.868;2024-01-15T03:12:48;15.93;;;8.13;;
63807;SDS011;49961;43.970;22.868;2024-01-15T03:13:49;14.97;;;7.73;;
63807;SDS011;49961;43.970;22.868;2024-01-15T03:14:49;17.93;;;7.83;;
63807;SDS011;49961;43.970;22.868;2024-01-15T03:15:50;16.00;;;7.33;;
63807;SDS011;49961;43.970;22.868;2024-01-15T03:16:51;15.87;;;7.33;;
63807;SDS011;49961;43.970;22.868;2024-01-15T03:17:51;13.43;;;7.50;;
63807;SDS011;49961;43.970;22.868;2024-01-15T03:18:52;16.40;;;7.53;;
63807;SDS011;49961;43.970;22.868;2024-01-15T03:19:53;11.53;;;6.50;;
63807;SDS011;49961;43.970;22.868;2024-01-15T03:20:53;15.33;;;7.30;;
63807;SDS011;49961;43.970;22.868;2024-01-15T03:21:54;13.17;;;7.63;;
63807;SDS011;49961;43.970;22.868;2024-01-15T03:22:55;15.20;;;8.23;;
63807;SDS011;49961;43.970;22.868;2024-01-15T03:23:55;13.23;;;6.83;;
63807;SDS011;49961;43.970;22.868;2024-01-15T03:24:56;14.70;;;7.23;;
63807;SDS011;49961;43.970;22.868;2024-01-15T03:25:56;12.63;;;6.43;;
63807;SDS011;49961;43.970;22.868;2024-01-15T03:26:57;13.30;;;7.90;;
63807;SDS011;49961;43.970;22.868;2024-01-15T03:27:57;14.03;;;6.13;;
63807;SDS011;49961;43.970;22.868;2024-01-15T03:28:58;15.10;;;8.10;;
63807;SDS011;49961;43.970;22.868;2024-01-15T03:29:58;13.83;;;7.60;;
63807;SDS011;49961;43.970;22.868;2024-01-15T03:30:59;10.13;;;6.63;;
63807;SDS011;49961;43.970;22.868;2024-01-15T03:31:59;11.70;;;6.00;;
63807;SDS011;49961;43.970;22.868;2024-01-15T03:33:00;14.37;;;8.40;;
63807;SDS011;49961;43.970;22.868;2024-01-15T03:34:00;11.53;;;5.43;;
63807;SDS011;49961;43.970;22.868;2024-01-15T03:35:01;11.00;;;6.17;;
63807;SDS011;49961;43.970;22.868;2024-01-15T03:36:01;11.17;;;5.43;;
63807;SDS011;49961;43.970;22.868;2024-01-15T03:37:02;15.93;;;6.83;;
63807;SDS011;49961;43.970;22.868;2024-01-15T03:38:02;13.73;;;7.07;;
63807;SDS011;49961;43.970;22.868;2024-01-15T03:39:03;13.03;;;6.80;;
63807;SDS011;49961;43.970;22.868;2024-01-15T03:40:04;9.83;;;4.83;;
63807;SDS011;49961;43.970;22.868;2024-01-15T03:41:05;9.13;;;4.68;;
63807;SDS011;49961;43.970;22.868;2024-01-15T03:42:05;11.07;;;6.10;;
63807;SDS011;49961;43.970;22.868;2024-01-15T03:43:06;8.48;;;4.45;;
63807;SDS011;49961;43.970;22.868;2024-01-15T03:44:07;11.20;;;5.67;;
63807;SDS011;49961;43.970;22.868;2024-01-15T03:45:07;13.03;;;6.77;;
63807;SDS011;49961;43.970;22.868;2024-01-15T03:46:08;15.53;;;5.63;;
63807;SDS011;49961;43.970;22.868;2024-01-15T03:47:08;9.27;;;5.03;;
63807;SDS011;49961;43.970;22.868;2024-01-15T03:48:09;8.20;;;5.00;;
63807;SDS011;49961;43.970;22.868;2024-01-15T03:49:09;11.27;;;5.47;;
63807;SDS011;49961;43.970;22.868;2024-01-15T03:50:10;12.80;;;6.00;;
63807;SDS011;49961;43.970;22.868;2024-01-15T03:51:10;9.93;;;5.87;;
63807;SDS011;49961;43.970;22.868;2024-01-15T03:52:11;14.07;;;6.30;;
63807;SDS011;49961;43.970;22.868;2024-01-15T03:53:11;10.40;;;6.17;;
63807;SDS011;49961;43.970;22.868;2024-01-15T03:54:12;9.20;;;4.90;;
63807;SDS011;49961;43.970;22.868;2024-01-15T03:55:12;8.63;;;5.77;;
63807;SDS011;49961;43.970;22.868;2024-01-15T03:56:13;9.97;;;5.00;;
63807;SDS011;49961;43.970;22.868;2024-01-15T03:57:13;8.07;;;4.50;;
63807;SDS011;49961;43.970;22.868;2024-01-15T03:58:14;10.90;;;5.57;;
63807;SDS011;49961;43.970;22.868;2024-01-15T03:59:17;7.05;;;4.28;;
63807;SDS011;49961;43.970;22.868;2024-01-15T04:00:18;8.33;;;4.70;;
63807;SDS011;49961;43.970;22.868;2024-01-15T04:01:18;8.40;;;4.17;;
63807;SDS011;49961;43.970;22.868;2024-01-15T04:02:19;8.43;;;3.90;;
63807;SDS011;49961;43.970;22.868;2024-01-15T04:03:19;6.80;;;3.57;;
63807;SDS011;49961;43.970;22.868;2024-01-15T04:04:20;8.83;;;4.20;;
63807;SDS011;49961;43.970;22.868;2024-01-15T04:05:20;8.33;;;3.80;;
63807;SDS011;49961;43.970;22.868;2024-01-15T04:06:21;6.47;;;3.07;;
63807;SDS011;49961;43.970;22.868;2024-01-15T04:07:21;8.20;;;4.00;;
63807;SDS011;49961;43.970;22.868;2024-01-15T04:08:22;7.57;;;4.13;;
63807;SDS011;49961;43.970;22.868;2024-01-15T04:09:22;7.03;;;3.53;;
63807;SDS011;49961;43.970;22.868;2024-01-15T04:10:23;5.83;;;3.50;;
63807;SDS011;49961;43.970;22.868;2024-01-15T04:11:23;5.37;;;3.67;;
63807;SDS011;49961;43.970;22.868;2024-01-15T04:12:24;7.50;;;4.50;;
63807;SDS011;49961;43.970;22.868;2024-01-15T04:13:26;7.13;;;3.97;;
63807;SDS011;49961;43.970;22.868;2024-01-15T04:14:27;6.18;;;3.33;;
63807;SDS011;49961;43.970;22.868;2024-01-15T04:15:28;8.90;;;3.65;;
63807;SDS011;49961;43.970;22.868;2024-01-15T04:16:29;8.33;;;3.87;;
63807;SDS011;49961;43.970;22.868;2024-01-15T04:17:29;6.27;;;3.27;;
63807;SDS011;49961;43.970;22.868;2024-01-15T04:18:30;6.07;;;3.40;;
63807;SDS011;49961;43.970;22.868;2024-01-15T04:19:30;6.47;;;3.57;;
63807;SDS011;49961;43.970;22.868;2024-01-15T04:20:31;9.37;;;3.63;;
63807;SDS011;49961;43.970;22.868;2024-01-15T04:21:31;7.67;;;3.97;;
63807;SDS011;49961;43.970;22.868;2024-01-15T04:22:32;9.30;;;3.80;;
63807;SDS011;49961;43.970;22.868;2024-01-15T04:23:34;5.57;;;3.35;;
63807;SDS011;49961;43.970;22.868;2024-01-15T04:24:34;6.70;;;2.97;;
63807;SDS011;49961;43.970;22.868;2024-01-15T04:25:35;6.07;;;3.47;;
63807;SDS011;49961;43.970;22.868;2024-01-15T04:26:35;9.23;;;3.97;;
63807;SDS011;49961;43.970;22.868;2024-01-15T04:27:36;7.17;;;3.90;;
63807;SDS011;49961;43.970;22.868;2024-01-15T04:28:36;8.40;;;3.57;;
63807;SDS011;49961;43.970;22.868;2024-01-15T04:29:37;5.43;;;3.17;;
63807;SDS011;49961;43.970;22.868;2024-01-15T04:30:39;4.97;;;3.00;;
63807;SDS011;49961;43.970;22.868;2024-01-15T04:31:39;8.27;;;3.60;;
63807;SDS011;49961;43.970;22.868;2024-01-15T04:32:40;7.30;;;3.63;;
63807;SDS011;49961;43.970;22.868;2024-01-15T04:33:40;9.70;;;3.60;;
63807;SDS011;49961;43.970;22.868;2024-01-15T04:34:41;10.60;;;3.90;;
63807;SDS011;49961;43.970;22.868;2024-01-15T04:35:41;6.53;;;3.87;;
63807;SDS011;49961;43.970;22.868;2024-01-15T04:36:42;8.10;;;3.60;;
63807;SDS011;49961;43.970;22.868;2024-01-15T04:37:42;5.20;;;2.90;;
63807;SDS011;49961;43.970;22.868;2024-01-15T04:38:43;8.27;;;4.37;;
63807;SDS011;49961;43.970;22.868;2024-01-15T04:39:43;6.23;;;3.60;;
63807;SDS011;49961;43.970;22.868;2024-01-15T04:40:44;7.20;;;3.13;;
63807;SDS011;49961;43.970;22.868;2024-01-15T04:41:44;8.00;;;3.57;;
63807;SDS011;49961;43.970;22.868;2024-01-15T04:42:45;6.33;;;3.47;;
63807;SDS011;49961;43.970;22.868;2024-01-15T04:43:46;9.97;;;3.30;;
63807;SDS011;49961;43.970;22.868;2024-01-15T04:44:47;5.33;;;2.87;;
63807;SDS011;49961;43.970;22.868;2024-01-15T04:45:47;6.00;;;3.20;;
63807;SDS011;49961;43.970;22.868;2024-01-15T04:46:48;11.40;;;3.57;;
63807;SDS011;49961;43.970;22.868;2024-01-15T04:47:48;8.03;;;3.27;;
63807;SDS011;49961;43.970;22.868;2024-01-15T04:48:49;8.73;;;3.77;;
63807;SDS011;49961;43.970;22.868;2024-01-15T04:49:49;7.80;;;3.87;;
63807;SDS011;49961;43.970;22.868;2024-01-15T04:50:51;7.07;;;3.58;;
63807;SDS011;49961;43.970;22.868;2024-01-15T04:51:51;7.43;;;3.43;;
63807;SDS011;49961;43.970;22.868;2024-01-15T04:52:52;7.70;;;3.70;;
63807;SDS011;49961;43.970;22.868;2024-01-15T04:53:52;7.43;;;4.20;;
63807;SDS011;49961;43.970;22.868;2024-01-15T04:54:53;8.33;;;4.83;;
63807;SDS011;49961;43.970;22.868;2024-01-15T04:55:53;7.93;;;4.10;;
63807;SDS011;49961;43.970;22.868;2024-01-15T04:56:54;10.40;;;4.63;;
63807;SDS011;49961;43.970;22.868;2024-01-15T04:57:54;7.93;;;4.63;;
63807;SDS011;49961;43.970;22.868;2024-01-15T04:58:55;7.60;;;3.80;;
63807;SDS011;49961;43.970;22.868;2024-01-15T04:59:55;7.40;;;3.90;;
63807;SDS011;49961;43.970;22.868;2024-01-15T05:00:56;7.13;;;3.53;;
63807;SDS011;49961;43.970;22.868;2024-01-15T05:01:56;7.30;;;3.57;;
63807;SDS011;49961;43.970;22.868;2024-01-15T05:02:57;6.50;;;3.57;;
63807;SDS011;49961;43.970;22.868;2024-01-15T05:03:58;6.93;;;3.23;;
63807;SDS011;49961;43.970;22.868;2024-01-15T05:04:58;11.00;;;4.20;;
63807;SDS011;49961;43.970;22.868;2024-01-15T05:05:59;10.77;;;3.90;;
63807;SDS011;49961;43.970;22.868;2024-01-15T05:06:59;5.97;;;3.10;;
63807;SDS011;49961;43.970;22.868;2024-01-15T05:08:00;10.33;;;3.67;;
63807;SDS011;49961;43.970;22.868;2024-01-15T05:09:00;9.10;;;4.40;;
63807;SDS011;49961;43.970;22.868;2024-01-15T05:10:01;7.27;;;3.77;;
63807;SDS011;49961;43.970;22.868;2024-01-15T05:11:01;7.73;;;3.63;;
63807;SDS011;49961;43.970;22.868;2024-01-15T05:12:02;6.57;;;4.60;;
63807;SDS011;49961;43.970;22.868;2024-01-15T05:13:03;7.53;;;3.87;;
63807;SDS011;49961;43.970;22.868;2024-01-15T05:14:03;5.93;;;3.97;;
63807;SDS011;49961;43.970;22.868;2024-01-15T05:15:04;9.17;;;4.27;;
63807;SDS011;49961;43.970;22.868;2024-01-15T05:16:05;11.00;;;6.10;;
63807;SDS011;49961;43.970;22.868;2024-01-15T05:17:05;9.27;;;5.70;;
63807;SDS011;49961;43.970;22.868;2024-01-15T05:18:06;9.07;;;4.67;;
63807;SDS011;49961;43.970;22.868;2024-01-15T05:19:07;14.53;;;6.33;;
63807;SDS011;49961;43.970;22.868;2024-01-15T05:20:08;6.20;;;4.07;;
63807;SDS011;49961;43.970;22.868;2024-01-15T05:21:09;11.63;;;5.10;;
63807;SDS011;49961;43.970;22.868;2024-01-15T05:22:10;12.70;;;5.90;;
63807;SDS011;49961;43.970;22.868;2024-01-15T05:23:10;12.33;;;4.93;;
63807;SDS011;49961;43.970;22.868;2024-01-15T05:24:11;6.23;;;4.13;;
63807;SDS011;49961;43.970;22.868;2024-01-15T05:25:11;14.80;;;6.17;;
63807;SDS011;49961;43.970;22.868;2024-01-15T05:26:12;9.43;;;4.50;;
63807;SDS011;49961;43.970;22.868;2024-01-15T05:27:12;6.17;;;3.40;;
63807;SDS011;49961;43.970;22.868;2024-01-15T05:28:13;10.40;;;5.27;;
63807;SDS011;49961;43.970;22.868;2024-01-15T05:29:14;8.70;;;4.07;;
63807;SDS011;49961;43.970;22.868;2024-01-15T05:30:15;13.27;;;6.63;;
63807;SDS011;49961;43.970;22.868;2024-01-15T05:31:16;10.48;;;5.43;;
63807;SDS011;49961;43.970;22.868;2024-01-15T05:32:17;10.30;;;5.47;;
63807;SDS011;49961;43.970;22.868;2024-01-15T05:33:17;7.70;;;4.37;;
63807;SDS011;49961;43.970;22.868;2024-01-15T05:34:18;9.50;;;4.33;;
63807;SDS011;49961;43.970;22.868;2024-01-15T05:35:18;7.30;;;3.83;;
63807;SDS011;49961;43.970;22.868;2024-01-15T05:36:19;6.30;;;4.10;;
63807;SDS011;49961;43.970;22.868;2024-01-15T05:37:19;8.67;;;5.50;;
63807;SDS011;49961;43.970;22.868;2024-01-15T05:38:20;7.37;;;3.80;;
63807;SDS011;49961;43.970;22.868;2024-01-15T05:39:21;7.47;;;4.10;;
63807;SDS011;49961;43.970;22.868;2024-01-15T05:40:21;7.77;;;4.60;;
63807;SDS011;49961;43.970;22.868;2024-01-15T05:41:22;9.00;;;5.20;;
63807;SDS011;49961;43.970;22.868;2024-01-15T05:42:22;10.50;;;5.70;;
63807;SDS011;49961;43.970;22.868;2024-01-15T05:43:23;9.73;;;6.33;;
63807;SDS011;49961;43.970;22.868;2024-01-15T05:44:23;9.83;;;4.97;;
63807;SDS011;49961;43.970;22.868;2024-01-15T05:45:25;11.60;;;6.60;;
63807;SDS011;49961;43.970;22.868;2024-01-15T05:46:26;9.50;;;5.15;;
63807;SDS011;49961;43.970;22.868;2024-01-15T05:47:27;9.37;;;5.87;;
63807;SDS011;49961;43.970;22.868;2024-01-15T05:48:27;12.53;;;5.90;;
63807;SDS011;49961;43.970;22.868;2024-01-15T05:49:28;9.80;;;5.53;;
63807;SDS011;49961;43.970;22.868;2024-01-15T05:50:28;11.03;;;5.23;;
63807;SDS011;49961;43.970;22.868;2024-01-15T05:51:29;8.67;;;5.23;;
63807;SDS011;49961;43.970;22.868;2024-01-15T05:52:29;6.57;;;3.87;;
63807;SDS011;49961;43.970;22.868;2024-01-15T05:53:30;10.37;;;4.03;;
63807;SDS011;49961;43.970;22.868;2024-01-15T05:54:30;7.20;;;4.07;;
63807;SDS011;49961;43.970;22.868;2024-01-15T05:55:31;7.27;;;3.93;;
63807;SDS011;49961;43.970;22.868;2024-01-15T05:56:31;9.43;;;5.03;;
63807;SDS011;49961;43.970;22.868;2024-01-15T05:57:32;10.83;;;5.83;;
63807;SDS011;49961;43.970;22.868;2024-01-15T05:58:32;11.33;;;6.20;;